createdAt,value
2019-03-15T00:00:53.351Z,18.73
2019-03-15T00:05:02.331Z,18.70
2019-03-15T00:09:09.572Z,17.80
2019-03-15T00:18:23.753Z,15.70
2019-03-15T00:22:30.429Z,16.33
2019-03-15T00:26:41.613Z,15.63
2019-03-15T00:30:48.182Z,16.23
2019-03-15T00:34:54.863Z,14.63
2019-03-15T00:44:14.086Z,12.47
2019-03-15T00:52:33.726Z,13.80
2019-03-15T00:56:40.970Z,14.00
2019-03-15T01:00:48.149Z,13.73
2019-03-15T01:05:15.003Z,14.10
2019-03-15T01:09:21.328Z,14.97
2019-03-15T01:13:32.262Z,14.47
2019-03-15T01:17:54.548Z,15.43
2019-03-15T01:22:04.737Z,16.77
2019-03-15T01:26:12.594Z,17.27
2019-03-15T01:30:18.913Z,16.77
2019-03-15T01:34:26.450Z,17.77
2019-03-15T01:38:34.941Z,18.43
2019-03-15T01:42:42.049Z,18.17
2019-03-15T01:46:48.583Z,17.67
2019-03-15T01:51:16.194Z,18.87
2019-03-15T01:55:22.768Z,18.77
2019-03-15T01:59:30.284Z,18.03
2019-03-15T02:03:57.280Z,19.27
2019-03-15T02:08:05.359Z,18.87
2019-03-15T02:27:55.311Z,20.20
2019-03-15T02:32:04.678Z,19.27
2019-03-15T02:36:13.858Z,17.93
2019-03-15T02:40:20.352Z,16.53
2019-03-15T02:44:31.383Z,17.17
2019-03-15T02:48:38.460Z,17.73
2019-03-15T02:52:44.904Z,16.00
2019-03-15T02:56:52.634Z,16.93
2019-03-15T03:01:00.278Z,17.07
2019-03-15T03:09:15.104Z,15.43
2019-03-15T03:13:21.860Z,15.43
2019-03-15T03:17:29.778Z,14.63
2019-03-15T03:21:39.404Z,15.30
2019-03-15T03:25:45.765Z,14.67
2019-03-15T03:29:52.394Z,13.37
2019-03-15T03:34:00.370Z,12.90
2019-03-15T03:38:06.782Z,11.87
2019-03-15T03:42:15.411Z,12.10
2019-03-15T03:46:48.186Z,12.87
2019-03-15T04:14:29.511Z,11.67
2019-03-15T04:18:37.892Z,10.80
2019-03-15T04:22:45.741Z,11.63
2019-03-15T04:26:52.058Z,11.20
2019-03-15T04:30:58.867Z,11.97
2019-03-15T04:35:08.724Z,10.57
2019-03-15T04:39:15.011Z,11.27
2019-03-15T04:43:21.662Z,10.90
2019-03-15T04:57:25.696Z,11.93
2019-03-15T05:06:05.394Z,11.60
2019-03-15T05:30:07.452Z,11.30
2019-03-15T05:34:14.451Z,12.37
2019-03-15T05:38:23.882Z,11.87
2019-03-15T05:42:32.204Z,11.83
2019-03-15T05:46:38.812Z,11.70
2019-03-15T05:50:47.111Z,12.03
2019-03-15T05:54:53.491Z,11.27
2019-03-15T05:59:00.788Z,11.27
2019-03-15T06:03:27.122Z,11.00
2019-03-15T06:07:35.938Z,10.87
2019-03-15T06:11:44.512Z,10.40
2019-03-15T06:15:51.497Z,11.83
2019-03-15T06:19:59.592Z,11.27
2019-03-15T06:24:07.177Z,11.03
2019-03-15T06:28:13.731Z,12.00
2019-03-15T06:32:24.781Z,12.30
2019-03-15T06:36:31.352Z,12.10
2019-03-15T06:40:45.783Z,13.63
2019-03-15T07:03:23.425Z,14.33
2019-03-15T07:07:30.808Z,12.67
2019-03-15T07:11:41.289Z,12.40
2019-03-15T07:15:49.951Z,11.63
2019-03-15T07:20:02.061Z,12.03
2019-03-15T07:24:10.401Z,10.80
2019-03-15T07:28:36.714Z,12.53
2019-03-15T07:37:27.251Z,9.90
2019-03-15T07:41:31.020Z,9.20
2019-03-15T07:45:39.718Z,8.60
2019-03-15T07:49:47.610Z,9.70
2019-03-15T08:03:33.837Z,9.93
2019-03-15T08:11:51.481Z,11.77
2019-03-15T08:15:59.085Z,11.23
2019-03-15T08:29:26.230Z,11.03
2019-03-15T08:33:33.699Z,10.30
2019-03-15T08:37:41.081Z,11.50
2019-03-15T08:41:50.394Z,10.70
2019-03-15T08:46:03.006Z,10.40
2019-03-15T08:50:14.566Z,10.53
2019-03-15T08:54:20.921Z,10.17
2019-03-15T08:58:28.259Z,7.23
2019-03-15T09:30:55.233Z,11.30
2019-03-15T09:35:03.565Z,11.47
2019-03-15T09:39:14.477Z,11.10
2019-03-15T09:43:20.780Z,9.33
2019-03-15T09:47:28.111Z,10.80
2019-03-15T09:51:37.071Z,8.13
2019-03-15T09:55:44.898Z,7.83
2019-03-15T09:59:54.207Z,7.13
2019-03-15T10:04:01.079Z,8.07
2019-03-15T10:18:06.107Z,9.30
2019-03-15T10:27:08.914Z,11.10
2019-03-15T10:31:15.888Z,11.07
2019-03-15T10:35:23.978Z,12.53
2019-03-15T10:39:30.575Z,14.73
2019-03-15T10:44:00.026Z,16.13
2019-03-15T10:48:08.264Z,15.43
2019-03-15T10:52:15.439Z,15.00
2019-03-15T10:56:23.041Z,14.50
2019-03-15T11:00:30.341Z,15.97
2019-03-15T11:04:38.037Z,14.40
2019-03-15T11:08:46.827Z,8.87
2019-03-15T11:12:56.701Z,5.53
2019-03-15T11:17:05.292Z,7.40
2019-03-15T11:53:35.875Z,4.53
2019-03-15T11:57:42.556Z,4.20
2019-03-15T12:02:03.105Z,3.80
2019-03-15T12:36:38.097Z,7.27
2019-03-15T13:46:21.763Z,5.70
2019-03-15T13:50:28.790Z,5.10
2019-03-15T13:54:36.790Z,4.37
2019-03-15T13:58:56.299Z,3.30
2019-03-15T14:02:53.401Z,3.13
2019-03-15T14:11:35.212Z,3.70
2019-03-15T14:15:41.684Z,4.20
2019-03-15T14:19:50.346Z,5.50
2019-03-15T14:23:57.292Z,6.00
2019-03-15T14:28:06.330Z,7.13
2019-03-15T14:32:12.771Z,6.20
2019-03-15T14:36:20.857Z,7.27
2019-03-15T14:40:48.249Z,7.33
2019-03-15T14:49:47.252Z,8.37
2019-03-15T14:53:55.655Z,8.80
2019-03-15T14:58:07.617Z,8.73
2019-03-15T15:02:14.208Z,5.67
2019-03-15T15:06:21.335Z,6.80
2019-03-15T15:10:27.729Z,6.10
2019-03-15T15:14:36.753Z,6.63
2019-03-15T15:18:45.131Z,7.00
2019-03-15T15:22:51.989Z,6.77
2019-03-15T15:31:38.819Z,5.10
2019-03-15T15:35:46.467Z,5.60
2019-03-15T15:53:59.020Z,3.20
2019-03-15T16:02:16.435Z,4.57
2019-03-15T16:06:23.099Z,5.53
2019-03-15T16:10:32.564Z,6.80
2019-03-15T16:14:41.916Z,7.73
2019-03-15T16:18:51.676Z,7.07
2019-03-15T16:22:58.043Z,7.27
2019-03-15T16:41:57.950Z,12.90
2019-03-15T16:46:05.657Z,9.83
2019-03-15T16:50:15.396Z,9.70
2019-03-15T16:54:27.114Z,10.67
2019-03-15T16:58:45.378Z,10.83
2019-03-15T17:02:43.765Z,11.23
2019-03-15T17:06:50.536Z,12.47
2019-03-15T17:15:05.211Z,13.53
2019-03-15T17:19:11.758Z,12.93
2019-03-15T17:23:21.814Z,12.03
2019-03-15T17:27:28.155Z,11.70
2019-03-15T17:31:34.594Z,11.00
2019-03-15T17:36:23.169Z,10.17
2019-03-15T17:40:31.123Z,9.50
2019-03-15T17:44:39.535Z,9.57
2019-03-15T17:48:45.907Z,8.33
2019-03-15T17:52:52.325Z,7.83
2019-03-15T17:57:01.418Z,8.43
2019-03-15T18:01:08.722Z,8.67
2019-03-15T18:05:15.374Z,10.47
2019-03-15T18:09:22.851Z,12.07
2019-03-15T18:13:29.227Z,11.13
2019-03-15T18:17:35.575Z,10.37
2019-03-15T18:21:45.728Z,9.60
2019-03-15T18:25:53.506Z,10.10
2019-03-15T18:29:59.821Z,9.40
2019-03-15T18:34:08.142Z,11.10
2019-03-15T18:38:15.594Z,12.27
2019-03-15T18:42:21.983Z,11.43
2019-03-15T18:46:30.443Z,12.33
2019-03-15T18:50:36.794Z,11.43
2019-03-15T18:54:47.014Z,12.03
2019-03-15T18:58:54.565Z,11.27
2019-03-15T19:03:04.613Z,12.33
2019-03-15T19:07:10.906Z,12.87
2019-03-15T19:11:18.131Z,12.43
2019-03-15T19:15:25.733Z,13.43
2019-03-15T19:19:32.116Z,14.57
2019-03-15T19:23:38.634Z,15.97
2019-03-15T19:27:47.997Z,15.07
2019-03-15T19:31:56.088Z,15.20
2019-03-15T19:36:04.403Z,14.70
2019-03-15T19:40:12.002Z,14.87
2019-03-15T19:44:20.524Z,13.83
2019-03-15T19:48:33.401Z,14.50
2019-03-15T19:52:39.801Z,12.70
2019-03-15T19:56:46.088Z,12.57
2019-03-15T20:00:53.912Z,11.33
2019-03-15T20:05:03.167Z,11.73
2019-03-15T20:09:10.458Z,10.83
2019-03-15T20:13:16.805Z,10.20
2019-03-15T20:17:24.071Z,11.27
2019-03-15T20:21:31.342Z,11.40
2019-03-15T20:25:38.304Z,9.37
2019-03-15T20:29:44.679Z,11.53
2019-03-15T20:33:51.096Z,9.87
2019-03-15T20:37:57.513Z,11.00
2019-03-15T20:42:04.064Z,12.17
2019-03-15T20:46:10.823Z,12.70
2019-03-15T20:50:17.900Z,12.70
2019-03-15T20:54:24.181Z,12.67
2019-03-15T20:58:31.193Z,12.73
2019-03-15T21:02:37.736Z,12.43
2019-03-15T21:06:45.460Z,12.80
2019-03-15T21:10:52.012Z,12.43
2019-03-15T21:14:59.989Z,13.23
2019-03-15T21:19:06.349Z,13.67
2019-03-15T21:23:12.872Z,11.90
2019-03-15T21:27:19.237Z,11.33
2019-03-15T21:31:25.561Z,11.87
2019-03-15T21:35:31.857Z,11.77
2019-03-15T21:39:37.364Z,11.47
2019-03-15T21:43:43.611Z,12.10
2019-03-15T21:47:49.929Z,11.37
2019-03-15T21:51:56.342Z,12.60
2019-03-15T21:56:03.520Z,12.30
2019-03-15T22:00:12.860Z,11.50
2019-03-15T22:04:19.492Z,12.30
2019-03-15T22:08:28.646Z,11.53
2019-03-15T22:12:35.061Z,11.90
2019-03-15T22:16:41.483Z,10.40
2019-03-15T22:20:47.883Z,11.53
2019-03-15T22:24:54.201Z,12.10
2019-03-15T22:29:01.141Z,11.90
2019-03-15T22:33:07.781Z,11.83
2019-03-15T22:37:14.280Z,11.37
2019-03-15T22:41:20.594Z,11.33
2019-03-15T22:45:29.186Z,10.17
2019-03-15T22:49:34.688Z,10.50
2019-03-15T22:53:41.039Z,11.23
2019-03-15T22:57:59.312Z,10.20
2019-03-15T23:01:55.934Z,11.10
2019-03-15T23:06:02.559Z,10.87
2019-03-15T23:10:10.271Z,10.97
2019-03-15T23:14:15.941Z,11.83
2019-03-15T23:18:24.508Z,4.70
2019-03-15T23:22:30.899Z,3.30
2019-03-15T23:26:37.220Z,3.50
2019-03-15T23:31:02.607Z,3.50
2019-03-15T23:35:12.915Z,3.57
2019-03-15T23:39:19.202Z,2.70
2019-03-15T23:43:25.533Z,3.93
2019-03-15T23:47:32.045Z,3.17
2019-03-15T23:51:40.589Z,4.17
2019-03-15T23:55:47.138Z,2.47
2019-03-15T23:59:55.191Z,3.73
